Pagrindinis puslapis
METAR-TAF:

METAR-TAF

Oro uostai :

Chesterfield Inlet, Nunavutas, Kanada

platuma: 63-20N, ilguma: 090-43W, Aukštis: 11 m

Dabartinis oras

Ataskaita buvo paskelbta 15 valandos ir 12 minutes, ne 22:00 UTC
Vėjas 21 kt iš Vakarų/Šiaurės Vakarų
Temperatūra -34°C
Drėgmė 60%
Slėgis 1015 hPa
Matomumas: 4.8 km
Su prošvaistėmis ne aukštis 16000 ft
Sniego pustymas

METAR: CYCS 182200Z 29021KT 3SM BLSN BKN160 M34/M39 A2996 RMK BLSN1AS6 S01 AFT 13UTC/58/MEDIUM PACK/ LAST STFD OBS/ NXT 191300 SLP148

Laikas: 07:12 (13:12 UTC)


TAF: trūkstamas

Orai ataskaitas ir orų prognozės (METAR, TAF).

turimą stotys yra geltonos ir raudonos taškus žemėlapyje.

Perkelti pele per norėdami pamatyti stoties vardą.

Tada spustelėkite, norėdami matyti oro stebėjimo ir prognozės.

Norėdami pakeisti žemėlapį: spustelėkite ant žalios mygtukų su juodo kryžiaus žemyn,; žalią mygtuką su brūkšneliu, jei norite nutolinti; arba žalių rodyklių gretimoms žemėlapius.


METAR-TAF: